sensor_id;sensor_type;location;lat;lon;timestamp;pressure;altitude;pressure_sealevel;temperature;humidity
29433;BME280;16405;53.964;13.448;2023-02-28T00:00:50;102794.16;;;-4.45;91.19
29433;BME280;16405;53.964;13.448;2023-02-28T00:03:16;102795.94;;;-4.44;91.51
29433;BME280;16405;53.964;13.448;2023-02-28T00:05:42;102796.69;;;-4.47;92.77
29433;BME280;16405;53.964;13.448;2023-02-28T00:08:08;102790.06;;;-4.42;93.73
29433;BME280;16405;53.964;13.448;2023-02-28T00:10:34;102797.22;;;-4.36;94.07
29433;BME280;16405;53.964;13.448;2023-02-28T00:13:05;102800.00;;;-4.31;94.98
29433;BME280;16405;53.964;13.448;2023-02-28T00:15:31;102803.53;;;-4.29;95.85
29433;BME280;16405;53.964;13.448;2023-02-28T00:17:57;102798.63;;;-4.23;96.26
29433;BME280;16405;53.964;13.448;2023-02-28T00:20:24;102796.97;;;-4.23;96.58
29433;BME280;16405;53.964;13.448;2023-02-28T00:22:52;102795.28;;;-4.22;96.19
29433;BME280;16405;53.964;13.448;2023-02-28T00:25:23;102804.75;;;-4.21;96.81
29433;BME280;16405;53.964;13.448;2023-02-28T00:27:50;102801.16;;;-4.25;96.55
29433;BME280;16405;53.964;13.448;2023-02-28T00:30:19;102805.06;;;-4.33;96.48
29433;BME280;16405;53.964;13.448;2023-02-28T00:32:46;102808.84;;;-4.43;97.04
29433;BME280;16405;53.964;13.448;2023-02-28T00:35:12;102802.72;;;-4.46;98.14
29433;BME280;16405;53.964;13.448;2023-02-28T00:37:38;102805.63;;;-4.39;98.80
29433;BME280;16405;53.964;13.448;2023-02-28T00:40:06;102810.84;;;-4.37;99.35
29433;BME280;16405;53.964;13.448;2023-02-28T00:42:33;102814.09;;;-4.41;100.00
29433;BME280;16405;53.964;13.448;2023-02-28T00:44:59;102821.44;;;-4.31;100.00
29433;BME280;16405;53.964;13.448;2023-02-28T00:47:25;102821.31;;;-4.34;100.00
29433;BME280;16405;53.964;13.448;2023-02-28T00:49:51;102815.22;;;-4.36;100.00
29433;BME280;16405;53.964;13.448;2023-02-28T00:52:17;102819.22;;;-4.41;99.45
29433;BME280;16405;53.964;13.448;2023-02-28T00:54:43;102817.53;;;-4.41;99.38
29433;BME280;16405;53.964;13.448;2023-02-28T00:57:08;102818.28;;;-4.43;98.96
29433;BME280;16405;53.964;13.448;2023-02-28T00:59:35;102821.16;;;-4.55;99.17
29433;BME280;16405;53.964;13.448;2023-02-28T01:02:00;102821.63;;;-4.62;99.16
29433;BME280;16405;53.964;13.448;2023-02-28T01:04:26;102826.06;;;-4.60;99.79
29433;BME280;16405;53.964;13.448;2023-02-28T01:06:52;102824.59;;;-4.55;99.16
29433;BME280;16405;53.964;13.448;2023-02-28T01:09:19;102826.50;;;-4.50;100.00
29433;BME280;16405;53.964;13.448;2023-02-28T01:11:45;102829.16;;;-4.49;100.00
29433;BME280;16405;53.964;13.448;2023-02-28T01:14:14;102826.19;;;-4.57;100.00
29433;BME280;16405;53.964;13.448;2023-02-28T01:16:41;102822.16;;;-4.69;99.54
29433;BME280;16405;53.964;13.448;2023-02-28T01:19:07;102809.63;;;-4.80;99.38
29433;BME280;16405;53.964;13.448;2023-02-28T01:21:33;102808.44;;;-4.86;97.83
29433;BME280;16405;53.964;13.448;2023-02-28T01:24:00;102804.78;;;-4.91;97.86
29433;BME280;16405;53.964;13.448;2023-02-28T01:26:26;102796.84;;;-4.96;97.37
29433;BME280;16405;53.964;13.448;2023-02-28T01:28:53;102811.13;;;-5.01;97.04
29433;BME280;16405;53.964;13.448;2023-02-28T01:31:20;102803.03;;;-5.09;95.77
29433;BME280;16405;53.964;13.448;2023-02-28T01:33:47;102804.44;;;-5.16;95.90
29433;BME280;16405;53.964;13.448;2023-02-28T01:36:17;102808.50;;;-5.19;95.62
29433;BME280;16405;53.964;13.448;2023-02-28T01:38:44;102808.28;;;-5.24;94.26
29433;BME280;16405;53.964;13.448;2023-02-28T01:41:23;102814.06;;;-5.28;94.44
29433;BME280;16405;53.964;13.448;2023-02-28T01:46:15;102806.84;;;-5.35;93.38
29433;BME280;16405;53.964;13.448;2023-02-28T01:48:57;102826.75;;;-5.31;94.35
29433;BME280;16405;53.964;13.448;2023-02-28T01:54:16;102811.31;;;-5.15;95.41
29433;BME280;16405;53.964;13.448;2023-02-28T01:57:05;102811.84;;;-5.04;97.19
29433;BME280;16405;53.964;13.448;2023-02-28T01:59:41;102815.63;;;-4.97;98.32
29433;BME280;16405;53.964;13.448;2023-02-28T02:02:20;102812.50;;;-4.91;98.78
29433;BME280;16405;53.964;13.448;2023-02-28T02:05:03;102806.63;;;-4.89;100.00
29433;BME280;16405;53.964;13.448;2023-02-28T02:07:33;102796.34;;;-4.89;100.00
29433;BME280;16405;53.964;13.448;2023-02-28T02:10:13;102805.22;;;-4.82;100.00
29433;BME280;16405;53.964;13.448;2023-02-28T02:16:25;102808.84;;;-4.79;100.00
29433;BME280;16405;53.964;13.448;2023-02-28T02:22:25;102810.03;;;-5.06;100.00
29433;BME280;16405;53.964;13.448;2023-02-28T02:37:12;102813.19;;;-5.61;97.68
29433;BME280;16405;53.964;13.448;2023-02-28T02:40:00;102818.72;;;-5.70;96.88
29433;BME280;16405;53.964;13.448;2023-02-28T02:42:46;102810.75;;;-5.74;96.56
29433;BME280;16405;53.964;13.448;2023-02-28T02:45:27;102815.88;;;-5.74;97.02
29433;BME280;16405;53.964;13.448;2023-02-28T02:48:02;102818.28;;;-5.78;96.97
29433;BME280;16405;53.964;13.448;2023-02-28T02:50:55;102818.19;;;-5.79;96.70
29433;BME280;16405;53.964;13.448;2023-02-28T02:53:37;102819.97;;;-5.78;97.06
29433;BME280;16405;53.964;13.448;2023-02-28T02:56:06;102810.75;;;-5.74;96.29
29433;BME280;16405;53.964;13.448;2023-02-28T02:58:38;102820.31;;;-5.72;96.95
29433;BME280;16405;53.964;13.448;2023-02-28T03:01:10;102818.53;;;-5.73;96.25
29433;BME280;16405;53.964;13.448;2023-02-28T03:03:38;102809.97;;;-5.73;96.62
29433;BME280;16405;53.964;13.448;2023-02-28T03:06:04;102815.88;;;-5.74;96.94
29433;BME280;16405;53.964;13.448;2023-02-28T03:08:36;102814.03;;;-5.77;96.47
29433;BME280;16405;53.964;13.448;2023-02-28T03:11:10;102809.63;;;-5.80;96.55
29433;BME280;16405;53.964;13.448;2023-02-28T03:13:52;102815.72;;;-5.78;96.76
29433;BME280;16405;53.964;13.448;2023-02-28T03:20:04;102822.63;;;-5.60;98.64
29433;BME280;16405;53.964;13.448;2023-02-28T03:26:04;102814.53;;;-5.51;98.57
29433;BME280;16405;53.964;13.448;2023-02-28T03:29:03;102817.94;;;-5.52;98.79
29433;BME280;16405;53.964;13.448;2023-02-28T03:31:37;102818.72;;;-5.53;99.47
29433;BME280;16405;53.964;13.448;2023-02-28T03:34:17;102804.91;;;-5.56;99.74
29433;BME280;16405;53.964;13.448;2023-02-28T03:36:52;102805.63;;;-5.58;99.34
29433;BME280;16405;53.964;13.448;2023-02-28T03:39:28;102803.94;;;-5.58;99.73
29433;BME280;16405;53.964;13.448;2023-02-28T03:42:01;102804.03;;;-5.56;98.75
29433;BME280;16405;53.964;13.448;2023-02-28T03:47:22;102808.94;;;-5.61;98.90
29433;BME280;16405;53.964;13.448;2023-02-28T03:49:57;102801.72;;;-5.68;98.99
29433;BME280;16405;53.964;13.448;2023-02-28T03:52:31;102807.47;;;-5.72;98.47
29433;BME280;16405;53.964;13.448;2023-02-28T03:55:04;102805.47;;;-5.78;98.44
29433;BME280;16405;53.964;13.448;2023-02-28T04:00:30;102812.38;;;-5.77;98.96
29433;BME280;16405;53.964;13.448;2023-02-28T04:02:58;102811.47;;;-5.77;99.00
29433;BME280;16405;53.964;13.448;2023-02-28T04:05:25;102816.44;;;-5.80;98.22
29433;BME280;16405;53.964;13.448;2023-02-28T04:07:51;102813.47;;;-5.88;98.29
29433;BME280;16405;53.964;13.448;2023-02-28T04:10:18;102814.03;;;-5.93;97.86
29433;BME280;16405;53.964;13.448;2023-02-28T04:12:44;102813.88;;;-5.96;98.32
29433;BME280;16405;53.964;13.448;2023-02-28T04:15:10;102804.09;;;-6.04;97.55
29433;BME280;16405;53.964;13.448;2023-02-28T04:17:37;102811.44;;;-6.10;97.72
29433;BME280;16405;53.964;13.448;2023-02-28T04:20:03;102806.84;;;-6.15;97.45
29433;BME280;16405;53.964;13.448;2023-02-28T04:22:37;102810.94;;;-6.19;97.26
29433;BME280;16405;53.964;13.448;2023-02-28T04:25:04;102803.00;;;-6.24;96.72
29433;BME280;16405;53.964;13.448;2023-02-28T04:27:31;102810.44;;;-6.28;96.07
29433;BME280;16405;53.964;13.448;2023-02-28T04:29:57;102810.25;;;-6.31;95.94
29433;BME280;16405;53.964;13.448;2023-02-28T04:32:22;102804.16;;;-6.33;96.57
29433;BME280;16405;53.964;13.448;2023-02-28T04:34:48;102801.78;;;-6.30;95.81
29433;BME280;16405;53.964;13.448;2023-02-28T04:37:14;102804.34;;;-6.30;95.83
29433;BME280;16405;53.964;13.448;2023-02-28T04:39:43;102793.47;;;-6.26;97.35
29433;BME280;16405;53.964;13.448;2023-02-28T04:42:09;102800.78;;;-6.17;97.19
29433;BME280;16405;53.964;13.448;2023-02-28T04:44:35;102808.16;;;-6.07;98.08
29433;BME280;16405;53.964;13.448;2023-02-28T04:47:01;102812.84;;;-6.00;98.62
29433;BME280;16405;53.964;13.448;2023-02-28T04:49:27;102808.84;;;-5.95;99.00
29433;BME280;16405;53.964;13.448;2023-02-28T04:51:53;102806.47;;;-5.90;98.64
29433;BME280;16405;53.964;13.448;2023-02-28T04:54:19;102813.63;;;-5.85;100.00
29433;BME280;16405;53.964;13.448;2023-02-28T04:56:47;102804.25;;;-5.84;100.00
29433;BME280;16405;53.964;13.448;2023-02-28T04:59:15;102799.91;;;-5.85;100.00
29433;BME280;16405;53.964;13.448;2023-02-28T05:01:44;102804.09;;;-5.87;99.75
29433;BME280;16405;53.964;13.448;2023-02-28T05:04:10;102813.53;;;-5.86;99.78
29433;BME280;16405;53.964;13.448;2023-02-28T05:06:36;102811.84;;;-5.86;100.00
29433;BME280;16405;53.964;13.448;2023-02-28T05:09:05;102803.28;;;-5.86;100.00
29433;BME280;16405;53.964;13.448;2023-02-28T05:11:33;102805.84;;;-5.86;100.00
29433;BME280;16405;53.964;13.448;2023-02-28T05:14:12;102803.19;;;-5.88;100.00
29433;BME280;16405;53.964;13.448;2023-02-28T05:16:38;102807.19;;;-5.93;99.91
29433;BME280;16405;53.964;13.448;2023-02-28T05:19:04;102812.34;;;-5.93;100.00
29433;BME280;16405;53.964;13.448;2023-02-28T05:21:38;102812.22;;;-5.96;100.00
29433;BME280;16405;53.964;13.448;2023-02-28T05:24:08;102808.41;;;-6.03;100.00
29433;BME280;16405;53.964;13.448;2023-02-28T05:26:40;102807.19;;;-6.09;99.86
29433;BME280;16405;53.964;13.448;2023-02-28T05:29:08;102818.78;;;-6.16;99.58
29433;BME280;16405;53.964;13.448;2023-02-28T05:31:35;102813.50;;;-6.19;100.00
29433;BME280;16405;53.964;13.448;2023-02-28T05:34:01;102820.22;;;-6.21;98.83
29433;BME280;16405;53.964;13.448;2023-02-28T05:36:30;102810.59;;;-6.25;99.28
29433;BME280;16405;53.964;13.448;2023-02-28T05:38:56;102818.28;;;-6.25;98.86
29433;BME280;16405;53.964;13.448;2023-02-28T05:41:22;102819.88;;;-6.27;99.68
29433;BME280;16405;53.964;13.448;2023-02-28T05:43:48;102820.69;;;-6.28;99.01
29433;BME280;16405;53.964;13.448;2023-02-28T05:46:15;102818.28;;;-6.25;100.00
29433;BME280;16405;53.964;13.448;2023-02-28T05:48:42;102827.06;;;-6.22;100.00
29433;BME280;16405;53.964;13.448;2023-02-28T05:51:11;102831.63;;;-6.16;100.00
29433;BME280;16405;53.964;13.448;2023-02-28T05:53:37;102827.03;;;-6.07;100.00
29433;BME280;16405;53.964;13.448;2023-02-28T05:56:03;102834.97;;;-6.02;100.00
29433;BME280;16405;53.964;13.448;2023-02-28T05:58:29;102837.59;;;-6.01;100.00
29433;BME280;16405;53.964;13.448;2023-02-28T06:00:59;102830.72;;;-6.02;100.00
29433;BME280;16405;53.964;13.448;2023-02-28T06:03:26;102831.50;;;-6.03;100.00
29433;BME280;16405;53.964;13.448;2023-02-28T06:05:52;102841.75;;;-6.03;100.00
29433;BME280;16405;53.964;13.448;2023-02-28T06:08:18;102846.72;;;-6.06;100.00
29433;BME280;16405;53.964;13.448;2023-02-28T06:10:44;102836.47;;;-6.06;100.00
29433;BME280;16405;53.964;13.448;2023-02-28T06:13:11;102840.72;;;-6.06;99.56
29433;BME280;16405;53.964;13.448;2023-02-28T06:15:38;102843.81;;;-6.12;99.51
29433;BME280;16405;53.964;13.448;2023-02-28T06:18:04;102835.34;;;-6.11;99.43
29433;BME280;16405;53.964;13.448;2023-02-28T06:20:30;102847.53;;;-6.07;98.20
29433;BME280;16405;53.964;13.448;2023-02-28T06:22:57;102845.28;;;-6.01;98.49
29433;BME280;16405;53.964;13.448;2023-02-28T06:25:27;102849.00;;;-5.95;97.96
29433;BME280;16405;53.964;13.448;2023-02-28T06:27:54;102852.56;;;-5.92;98.08
29433;BME280;16405;53.964;13.448;2023-02-28T06:30:21;102853.34;;;-5.78;97.92
29433;BME280;16405;53.964;13.448;2023-02-28T06:32:53;102866.06;;;-5.48;96.99
29433;BME280;16405;53.964;13.448;2023-02-28T06:35:19;102864.63;;;-5.10;95.76
29433;BME280;16405;53.964;13.448;2023-02-28T06:37:45;102862.38;;;-4.88;95.45
29433;BME280;16405;53.964;13.448;2023-02-28T06:40:12;102868.88;;;-4.08;95.73
29433;BME280;16405;53.964;13.448;2023-02-28T06:42:38;102868.41;;;-3.81;93.95
29433;BME280;16405;53.964;13.448;2023-02-28T06:45:05;102865.47;;;-3.52;93.58
29433;BME280;16405;53.964;13.448;2023-02-28T06:47:36;102871.94;;;-2.62;92.45
29433;BME280;16405;53.964;13.448;2023-02-28T06:50:02;102890.03;;;0.22;89.13
29433;BME280;16405;53.964;13.448;2023-02-28T06:52:28;102905.47;;;4.47;81.04
29433;BME280;16405;53.964;13.448;2023-02-28T06:54:54;102906.84;;;8.14;69.13
29433;BME280;16405;53.964;13.448;2023-02-28T06:57:31;102922.44;;;10.92;59.28
29433;BME280;16405;53.964;13.448;2023-02-28T07:00:02;102956.72;;;13.01;53.08
29433;BME280;16405;53.964;13.448;2023-02-28T07:02:28;102981.50;;;14.47;48.42
29433;BME280;16405;53.964;13.448;2023-02-28T07:04:54;102992.94;;;15.69;45.60
29433;BME280;16405;53.964;13.448;2023-02-28T07:07:20;103003.38;;;16.04;43.07
29433;BME280;16405;53.964;13.448;2023-02-28T07:09:46;102999.38;;;16.17;41.82
29433;BME280;16405;53.964;13.448;2023-02-28T07:12:12;103017.03;;;16.45;41.18
29433;BME280;16405;53.964;13.448;2023-02-28T07:14:38;103035.56;;;16.98;40.09
29433;BME280;16405;53.964;13.448;2023-02-28T07:17:04;103042.63;;;17.68;39.03
29433;BME280;16405;53.964;13.448;2023-02-28T07:19:32;103059.22;;;18.41;37.88
29433;BME280;16405;53.964;13.448;2023-02-28T07:21:57;103066.94;;;19.09;37.08
29433;BME280;16405;53.964;13.448;2023-02-28T07:24:23;103073.97;;;19.68;36.15
29433;BME280;16405;53.964;13.448;2023-02-28T07:26:53;103077.88;;;20.16;35.51
29433;BME280;16405;53.964;13.448;2023-02-28T07:29:19;103078.75;;;20.34;34.94
29433;BME280;16405;53.964;13.448;2023-02-28T07:31:45;103075.97;;;20.01;34.87
29433;BME280;16405;53.964;13.448;2023-02-28T07:34:13;103083.41;;;20.13;34.46
29433;BME280;16405;53.964;13.448;2023-02-28T07:36:39;103094.41;;;20.24;34.80
29433;BME280;16405;53.964;13.448;2023-02-28T07:39:05;103097.28;;;19.64;34.68
29433;BME280;16405;53.964;13.448;2023-02-28T07:41:31;103092.78;;;19.08;34.84
29433;BME280;16405;53.964;13.448;2023-02-28T07:43:59;103099.22;;;19.23;35.04
29433;BME280;16405;53.964;13.448;2023-02-28T07:46:26;103107.97;;;19.64;35.02
29433;BME280;16405;53.964;13.448;2023-02-28T07:48:54;103112.63;;;19.99;34.62
29433;BME280;16405;53.964;13.448;2023-02-28T07:51:22;103116.84;;;20.58;34.49
29433;BME280;16405;53.964;13.448;2023-02-28T07:53:48;103131.59;;;21.00;34.14
29433;BME280;16405;53.964;13.448;2023-02-28T07:56:13;103135.84;;;21.04;33.68
29433;BME280;16405;53.964;13.448;2023-02-28T07:58:39;103135.41;;;20.79;33.73
29433;BME280;16405;53.964;13.448;2023-02-28T08:01:10;103134.06;;;20.34;33.64
29433;BME280;16405;53.964;13.448;2023-02-28T08:03:37;103130.50;;;20.16;34.10
29433;BME280;16405;53.964;13.448;2023-02-28T08:06:05;103139.59;;;19.94;34.06
29433;BME280;16405;53.964;13.448;2023-02-28T08:08:31;103138.91;;;19.89;34.36
29433;BME280;16405;53.964;13.448;2023-02-28T08:11:02;103143.28;;;20.28;33.98
29433;BME280;16405;53.964;13.448;2023-02-28T08:13:30;103149.16;;;20.71;34.22
29433;BME280;16405;53.964;13.448;2023-02-28T08:15:56;103149.31;;;21.03;33.49
29433;BME280;16405;53.964;13.448;2023-02-28T08:18:22;103155.75;;;21.16;33.77
29433;BME280;16405;53.964;13.448;2023-02-28T08:20:49;103162.88;;;21.33;33.54
29433;BME280;16405;53.964;13.448;2023-02-28T08:23:14;103152.25;;;21.49;33.55
29433;BME280;16405;53.964;13.448;2023-02-28T08:25:40;103160.47;;;21.62;33.11
29433;BME280;16405;53.964;13.448;2023-02-28T08:28:06;103161.16;;;21.65;32.83
29433;BME280;16405;53.964;13.448;2023-02-28T08:30:32;103167.50;;;21.64;32.93
29433;BME280;16405;53.964;13.448;2023-02-28T08:32:58;103164.28;;;21.58;32.99
29433;BME280;16405;53.964;13.448;2023-02-28T08:35:24;103169.44;;;21.45;32.91
29433;BME280;16405;53.964;13.448;2023-02-28T08:37:50;103164.63;;;21.34;32.95
29433;BME280;16405;53.964;13.448;2023-02-28T08:40:17;103167.47;;;21.31;33.08
29433;BME280;16405;53.964;13.448;2023-02-28T08:42:45;103167.00;;;21.23;33.21
29433;BME280;16405;53.964;13.448;2023-02-28T08:45:13;103162.34;;;20.93;33.17
29433;BME280;16405;53.964;13.448;2023-02-28T08:47:40;103156.34;;;20.52;33.67
29433;BME280;16405;53.964;13.448;2023-02-28T08:50:07;103161.31;;;20.42;33.99
29433;BME280;16405;53.964;13.448;2023-02-28T08:52:33;103162.47;;;20.36;33.92
29433;BME280;16405;53.964;13.448;2023-02-28T08:54:59;103163.63;;;20.13;34.25
29433;BME280;16405;53.964;13.448;2023-02-28T08:57:25;103162.56;;;19.79;34.27
29433;BME280;16405;53.964;13.448;2023-02-28T08:59:54;103159.31;;;19.52;34.67
29433;BME280;16405;53.964;13.448;2023-02-28T09:02:19;103150.41;;;19.33;34.83
29433;BME280;16405;53.964;13.448;2023-02-28T09:04:46;103152.13;;;19.15;34.98
29433;BME280;16405;53.964;13.448;2023-02-28T09:07:12;103143.72;;;19.03;35.22
29433;BME280;16405;53.964;13.448;2023-02-28T09:09:38;103137.81;;;18.75;35.88
29433;BME280;16405;53.964;13.448;2023-02-28T09:12:23;103137.69;;;18.35;36.15
29433;BME280;16405;53.964;13.448;2023-02-28T09:14:53;103128.31;;;17.79;36.46
29433;BME280;16405;53.964;13.448;2023-02-28T09:17:20;103133.00;;;17.02;37.34
29433;BME280;16405;53.964;13.448;2023-02-28T09:19:48;103127.63;;;16.77;37.98
29433;BME280;16405;53.964;13.448;2023-02-28T09:22:15;103132.63;;;16.61;38.51
29433;BME280;16405;53.964;13.448;2023-02-28T09:24:44;103123.28;;;16.48;38.78
29433;BME280;16405;53.964;13.448;2023-02-28T09:27:16;103130.13;;;16.28;39.09
29433;BME280;16405;53.964;13.448;2023-02-28T09:29:41;103131.91;;;16.01;39.44
29433;BME280;16405;53.964;13.448;2023-02-28T09:32:07;103120.28;;;15.75;40.14
29433;BME280;16405;53.964;13.448;2023-02-28T09:34:37;103121.09;;;15.46;40.47
29433;BME280;16405;53.964;13.448;2023-02-28T09:37:05;103114.81;;;15.19;40.81
29433;BME280;16405;53.964;13.448;2023-02-28T09:39:31;103116.06;;;14.73;41.90
29433;BME280;16405;53.964;13.448;2023-02-28T09:42:03;103106.59;;;14.25;42.42
29433;BME280;16405;53.964;13.448;2023-02-28T09:44:40;103095.78;;;13.58;43.83
29433;BME280;16405;53.964;13.448;2023-02-28T09:47:31;103090.31;;;12.76;45.15
29433;BME280;16405;53.964;13.448;2023-02-28T09:50:38;103068.84;;;11.90;46.86
29433;BME280;16405;53.964;13.448;2023-02-28T09:53:33;103063.50;;;11.26;47.51
29433;BME280;16405;53.964;13.448;2023-02-28T09:56:18;103064.91;;;10.79;48.38
29433;BME280;16405;53.964;13.448;2023-02-28T10:05:01;103046.44;;;9.70;52.51
29433;BME280;16405;53.964;13.448;2023-02-28T10:07:53;103044.81;;;9.47;52.66
29433;BME280;16405;53.964;13.448;2023-02-28T10:11:13;103044.00;;;9.33;52.61
29433;BME280;16405;53.964;13.448;2023-02-28T10:16:50;103046.72;;;9.07;51.74
29433;BME280;16405;53.964;13.448;2023-02-28T10:19:51;103041.53;;;8.94;52.22
29433;BME280;16405;53.964;13.448;2023-02-28T10:25:29;103034.53;;;8.76;52.71
29433;BME280;16405;53.964;13.448;2023-02-28T10:28:19;103033.66;;;8.76;52.54
29433;BME280;16405;53.964;13.448;2023-02-28T10:30:50;103031.97;;;8.46;52.21
29433;BME280;16405;53.964;13.448;2023-02-28T10:33:28;103032.81;;;8.51;52.45
29433;BME280;16405;53.964;13.448;2023-02-28T10:36:00;103031.97;;;8.47;53.28
29433;BME280;16405;53.964;13.448;2023-02-28T10:38:37;103029.34;;;8.43;53.03
29433;BME280;16405;53.964;13.448;2023-02-28T10:41:30;103032.81;;;8.51;53.04
29433;BME280;16405;53.964;13.448;2023-02-28T10:44:22;103025.81;;;8.53;53.61
29433;BME280;16405;53.964;13.448;2023-02-28T10:46:52;103024.09;;;8.52;52.63
29433;BME280;16405;53.964;13.448;2023-02-28T10:49:26;103019.69;;;8.52;53.07
29433;BME280;16405;53.964;13.448;2023-02-28T10:51:59;103019.72;;;8.46;52.64
29433;BME280;16405;53.964;13.448;2023-02-28T10:54:35;103012.72;;;8.45;53.33
29433;BME280;16405;53.964;13.448;2023-02-28T10:57:22;103010.06;;;8.24;52.57
29433;BME280;16405;53.964;13.448;2023-02-28T11:00:08;103005.69;;;8.12;52.50
29433;BME280;16405;53.964;13.448;2023-02-28T11:02:39;102989.09;;;8.08;53.13
29433;BME280;16405;53.964;13.448;2023-02-28T11:05:33;102984.72;;;8.06;52.72
29433;BME280;16405;53.964;13.448;2023-02-28T11:08:10;102969.81;;;7.77;51.63
29433;BME280;16405;53.964;13.448;2023-02-28T11:10:58;102979.44;;;7.76;52.74
29433;BME280;16405;53.964;13.448;2023-02-28T11:13:39;102979.44;;;7.61;52.99
29433;BME280;16405;53.964;13.448;2023-02-28T11:16:10;102971.56;;;7.63;53.37
29433;BME280;16405;53.964;13.448;2023-02-28T11:18:57;102967.16;;;7.49;53.55
29433;BME280;16405;53.964;13.448;2023-02-28T11:21:32;102967.13;;;7.32;53.05
29433;BME280;16405;53.964;13.448;2023-02-28T11:24:06;102961.00;;;7.26;53.82
29433;BME280;16405;53.964;13.448;2023-02-28T11:26:47;102956.59;;;7.23;53.43
29433;BME280;16405;53.964;13.448;2023-02-28T11:29:32;102952.25;;;7.30;53.15
29433;BME280;16405;53.964;13.448;2023-02-28T11:32:06;102953.97;;;7.15;53.04
29433;BME280;16405;53.964;13.448;2023-02-28T11:34:37;102956.59;;;7.11;52.76
29433;BME280;16405;53.964;13.448;2023-02-28T11:37:20;102963.59;;;7.18;53.78
29433;BME280;16405;53.964;13.448;2023-02-28T11:39:47;102963.63;;;7.24;52.90
29433;BME280;16405;53.964;13.448;2023-02-28T11:45:55;102957.44;;;7.10;51.81
29433;BME280;16405;53.964;13.448;2023-02-28T11:51:28;102952.22;;;7.14;51.51
29433;BME280;16405;53.964;13.448;2023-02-28T12:00:39;102945.22;;;7.04;52.55
29433;BME280;16405;53.964;13.448;2023-02-28T12:06:23;102945.13;;;6.81;52.41
29433;BME280;16405;53.964;13.448;2023-02-28T12:11:55;102937.22;;;6.73;52.35
29433;BME280;16405;53.964;13.448;2023-02-28T12:17:16;102933.69;;;6.64;51.79
29433;BME280;16405;53.964;13.448;2023-02-28T12:20:55;102921.38;;;6.49;52.35
29433;BME280;16405;53.964;13.448;2023-02-28T12:28:36;102920.63;;;6.71;53.74
29433;BME280;16405;53.964;13.448;2023-02-28T12:31:26;102911.88;;;6.66;53.48
29433;BME280;16405;53.964;13.448;2023-02-28T12:34:28;102914.53;;;6.74;53.14
29433;BME280;16405;53.964;13.448;2023-02-28T12:36:59;102908.47;;;6.86;53.35
29433;BME280;16405;53.964;13.448;2023-02-28T12:39:32;102912.84;;;6.93;53.77
29433;BME280;16405;53.964;13.448;2023-02-28T12:42:24;102907.63;;;6.94;53.04
29433;BME280;16405;53.964;13.448;2023-02-28T12:45:22;102908.50;;;7.01;54.09
29433;BME280;16405;53.964;13.448;2023-02-28T12:48:00;102901.56;;;7.12;54.21
29433;BME280;16405;53.964;13.448;2023-02-28T12:50:27;102896.31;;;7.14;53.42
29433;BME280;16405;53.964;13.448;2023-02-28T12:59:34;102891.03;;;6.97;53.34
29433;BME280;16405;53.964;13.448;2023-02-28T13:11:32;102890.97;;;6.77;51.76
29433;BME280;16405;53.964;13.448;2023-02-28T13:14:37;102882.25;;;6.84;52.68
29433;BME280;16405;53.964;13.448;2023-02-28T13:17:17;102882.28;;;6.86;52.38
29433;BME280;16405;53.964;13.448;2023-02-28T13:24:52;102877.09;;;6.98;54.21
29433;BME280;16405;53.964;13.448;2023-02-28T13:27:36;102883.22;;;7.09;53.91
29433;BME280;16405;53.964;13.448;2023-02-28T13:44:11;102863.78;;;6.40;54.96
29433;BME280;16405;53.964;13.448;2023-02-28T13:49:34;102855.91;;;6.43;54.02
29433;BME280;16405;53.964;13.448;2023-02-28T14:06:37;102842.06;;;6.71;52.92
29433;BME280;16405;53.964;13.448;2023-02-28T14:09:35;102833.41;;;6.85;52.80
29433;BME280;16405;53.964;13.448;2023-02-28T14:15:43;102832.53;;;6.95;51.90
29433;BME280;16405;53.964;13.448;2023-02-28T14:18:27;102836.94;;;7.05;52.51
29433;BME280;16405;53.964;13.448;2023-02-28T14:21:22;102838.66;;;7.08;50.71
29433;BME280;16405;53.964;13.448;2023-02-28T14:31:22;102823.84;;;7.17;51.52
29433;BME280;16405;53.964;13.448;2023-02-28T14:34:17;102826.47;;;7.22;51.68
29433;BME280;16405;53.964;13.448;2023-02-28T14:36:44;102815.09;;;7.14;51.82
29433;BME280;16405;53.964;13.448;2023-02-28T14:39:19;102820.34;;;7.09;51.22
29433;BME280;16405;53.964;13.448;2023-02-28T14:41:47;102817.75;;;7.15;51.56
29433;BME280;16405;53.964;13.448;2023-02-28T14:44:25;102814.22;;;7.16;51.56
29433;BME280;16405;53.964;13.448;2023-02-28T14:46:59;102810.75;;;7.22;51.69
29433;BME280;16405;53.964;13.448;2023-02-28T14:49:37;102813.38;;;7.28;52.58
29433;BME280;16405;53.964;13.448;2023-02-28T14:52:20;102807.28;;;7.22;52.51
29433;BME280;16405;53.964;13.448;2023-02-28T14:54:57;102808.09;;;7.19;52.97
29433;BME280;16405;53.964;13.448;2023-02-28T14:57:31;102805.50;;;7.21;52.86
29433;BME280;16405;53.964;13.448;2023-02-28T15:00:25;102810.72;;;7.14;53.36
29433;BME280;16405;53.964;13.448;2023-02-28T15:02:53;102809.88;;;7.11;52.50
29433;BME280;16405;53.964;13.448;2023-02-28T15:05:26;102795.00;;;7.05;53.13
29433;BME280;16405;53.964;13.448;2023-02-28T15:08:15;102790.63;;;7.01;53.42
29433;BME280;16405;53.964;13.448;2023-02-28T15:11:01;102793.25;;;6.95;53.67
29433;BME280;16405;53.964;13.448;2023-02-28T15:13:47;102788.00;;;6.87;53.86
29433;BME280;16405;53.964;13.448;2023-02-28T15:16:22;102781.88;;;6.74;53.78
29433;BME280;16405;53.964;13.448;2023-02-28T15:18:54;102785.34;;;6.61;53.92
29433;BME280;16405;53.964;13.448;2023-02-28T15:24:07;102771.31;;;6.41;55.26
29433;BME280;16405;53.964;13.448;2023-02-28T15:26:39;102771.28;;;6.33;55.10
29433;BME280;16405;53.964;13.448;2023-02-28T15:29:17;102772.97;;;6.26;56.01
29433;BME280;16405;53.964;13.448;2023-02-28T15:31:49;102772.09;;;6.18;55.90